Time;durP1;ratioP1;P1;durP2;ratioP2;P2;SDS_P1;SDS_P2;PMS_P1;PMS_P2;Temp;Humidity;BMP_temperature;BMP_pressure;BME280_temperature;BME280_humidity;BME280_pressure;Samples;Min_cycle;Max_cycle;Signal;HPM_P1;HPM_P2
2021/03/15 00:00:37;;;;;;;;;;;;;;;;;;5074251;28;20309;-63
2021/03/15 00:03:03;;;;;;;;;;;;;;;;;;5074291;28;19904;-62
2021/03/15 00:05:29;;;;;;;;;;;;;;;;;;5074042;28;19904;-64
2021/03/15 00:07:56;;;;;;;;;;;;;;;;;;5074188;28;20284;-64
2021/03/15 00:10:22;;;;;;;;;;;;;;;;;;5074163;28;19958;-64
2021/03/15 00:12:48;;;;;;;;;;;;;;;;;;5074414;28;19909;-63
2021/03/15 00:15:14;;;;;;;;;;;;;;;;;;5074162;28;19908;-64
2021/03/15 00:17:40;;;;;;;;;;;;;;;;;;5074043;28;19911;-64
2021/03/15 00:20:06;;;;;;;;;;;;;;;;;;5074420;28;19905;-64
2021/03/15 00:22:32;;;;;;;;;;;;;;;;;;5073913;28;20242;-64
2021/03/15 00:24:58;;;;;;;;;;;;;;;;;;5073566;28;20401;-64
2021/03/15 00:27:24;;;;;;;;;;;;;;;;;;5073623;28;19923;-64
2021/03/15 00:29:51;;;;;;;;;;;;;;;;;;5072591;28;19904;-64
2021/03/15 00:32:17;;;;;;;;;;;;;;;;;;5074053;28;20262;-64
2021/03/15 00:34:43;;;;;;;;;;;;;;;;;;5073810;28;19904;-64
2021/03/15 00:37:09;;;;;;;;;;;;;;;;;;5073584;28;19915;-64
2021/03/15 00:39:35;;;;;;;;;;;;;;;;;;5073783;28;19990;-64
2021/03/15 00:42:01;;;;;;;;;;;;;;;;;;5073929;28;19905;-64
2021/03/15 00:44:27;;;;;;;;;;;;;;;;;;5073777;28;20280;-63
2021/03/15 00:46:52;;;;;;;;;;;;;;;;;;5073429;28;19954;-64
2021/03/15 00:49:18;;;;;;;;;;;;;;;;;;5073924;28;19908;-64
2021/03/15 00:51:44;;;;;;;;;;;;;;;;;;5073876;28;20005;-63
2021/03/15 00:54:10;;;;;;;;;;;;;;;;;;5072364;28;20348;-64
2021/03/15 00:56:36;;;;;;;;;;;;;;;;;;5073589;28;19904;-64
2021/03/15 00:59:02;;;;;;;;;;;;;;;;;;5073898;28;19905;-64
2021/03/15 01:01:28;;;;;;;;;;;;;;;;;;5073607;28;19908;-64
2021/03/15 01:03:54;;;;;;;;;;;;;;;;;;5073607;28;20281;-64
2021/03/15 01:06:20;;;;;;;;;;;;;;;;;;5073569;28;19974;-64
2021/03/15 01:08:46;;;;;;;;;;;;;;;;;;5073666;28;19904;-64
2021/03/15 01:11:12;;;;;;;;;;;;;;;;;;5073429;28;20323;-62
2021/03/15 01:13:38;;;;;;;;;;;;;;;;;;5073585;28;19909;-64
2021/03/15 01:16:04;;;;;;;;;;;;;;;;;;5073443;28;19904;-64
2021/03/15 01:18:30;;;;;;;;;;;;;;;;;;5073400;28;19957;-64
2021/03/15 01:20:56;;;;;;;;;;;;;;;;;;5073732;28;19905;-64
2021/03/15 01:23:22;;;;;;;;;;;;;;;;;;5073531;28;19904;-64
2021/03/15 01:25:48;;;;;;;;;;;;;;;;;;5073590;28;20277;-63
2021/03/15 01:28:14;;;;;;;;;;;;;;;;;;5073139;28;19916;-64
2021/03/15 01:30:40;;;;;;;;;;;;;;;;;;5073347;28;19912;-63
2021/03/15 01:33:06;;;;;;;;;;;;;;;;;;5073323;28;19911;-64
2021/03/15 01:35:32;;;;;;;;;;;;;;;;;;5073553;28;19943;-63
2021/03/15 01:37:58;;;;;;;;;;;;;;;;;;5075450;28;19909;-64
2021/03/15 01:40:24;;;;;;;;;;;;;;;;;;5077231;28;19905;-64
2021/03/15 01:42:50;;;;;;;;;;;;;;;;;;5076893;28;20330;-63
2021/03/15 01:45:16;;;;;;;;;;;;;;;;;;5075645;28;19910;-64
2021/03/15 01:47:42;;;;;;;;;;;;;;;;;;5075423;28;19974;-64
2021/03/15 01:50:08;;;;;;;;;;;;;;;;;;5075554;28;20400;-64
2021/03/15 01:52:34;;;;;;;;;;;;;;;;;;5076727;28;19904;-64
2021/03/15 01:55:00;;;;;;;;;;;;;;;;;;5077072;28;19905;-63
2021/03/15 01:57:26;;;;;;;;;;;;;;;;;;5076748;28;19995;-64
2021/03/15 01:59:52;;;;;;;;;;;;;;;;;;5076903;28;19911;-64
2021/03/15 02:02:18;;;;;;;;;;;;;;;;;;5076568;28;19904;-64
2021/03/15 02:04:44;;;;;;;;;;;;;;;;;;5076786;28;19904;-64
2021/03/15 02:07:10;;;;;;;;;;;;;;;;;;5076479;28;20286;-63
2021/03/15 02:09:36;;;;;;;;;;;;;;;;;;5076349;28;19957;-64
2021/03/15 02:12:02;;;;;;;;;;;;;;;;;;5076674;28;19911;-64
2021/03/15 02:14:28;;;;;;;;;;;;;;;;;;5076210;28;20273;-64
2021/03/15 02:16:54;;;;;;;;;;;;;;;;;;5076350;28;19904;-64
2021/03/15 02:19:19;;;;;;;;;;;;;;;;;;5076464;28;19904;-64
2021/03/15 02:21:45;;;;;;;;;;;;;;;;;;5076194;28;20349;-64
2021/03/15 02:24:12;;;;;;;;;;;;;;;;;;5076120;28;19904;-64
2021/03/15 02:26:38;;;;;;;;;;;;;;;;;;5076028;28;19967;-64
2021/03/15 02:29:04;;;;;;;;;;;;;;;;;;5076123;28;20365;-63
2021/03/15 02:31:30;;;;;;;;;;;;;;;;;;5076297;28;19911;-64
2021/03/15 02:33:56;;;;;;;;;;;;;;;;;;5075995;28;20319;-63
2021/03/15 02:36:22;;;;;;;;;;;;;;;;;;5075953;28;19904;-64
2021/03/15 02:38:48;;;;;;;;;;;;;;;;;;5076064;28;19939;-63
2021/03/15 02:41:13;;;;;;;;;;;;;;;;;;5076378;28;19904;-63
2021/03/15 02:43:39;;;;;;;;;;;;;;;;;;5075732;28;19900;-63
2021/03/15 02:46:05;;;;;;;;;;;;;;;;;;5075908;28;20013;-63
2021/03/15 02:48:31;;;;;;;;;;;;;;;;;;5075174;28;19912;-63
2021/03/15 02:50:57;;;;;;;;;;;;;;;;;;5075630;28;19912;-64
2021/03/15 02:53:23;;;;;;;;;;;;;;;;;;5075614;28;19905;-63
2021/03/15 02:55:49;;;;;;;;;;;;;;;;;;5075901;28;19995;-63
2021/03/15 02:58:15;;;;;;;;;;;;;;;;;;5075543;28;20261;-63
2021/03/15 03:00:41;;;;;;;;;;;;;;;;;;5075478;28;19951;-63
2021/03/15 03:03:07;;;;;;;;;;;;;;;;;;5075539;28;20250;-63
2021/03/15 03:05:33;;;;;;;;;;;;;;;;;;5073939;28;19905;-63
2021/03/15 03:07:59;;;;;;;;;;;;;;;;;;5075430;28;19927;-63
2021/03/15 03:10:25;;;;;;;;;;;;;;;;;;5075160;28;20003;-63
2021/03/15 03:12:51;;;;;;;;;;;;;;;;;;5075319;28;19904;-64
2021/03/15 03:15:17;;;;;;;;;;;;;;;;;;5073800;28;19904;-63
2021/03/15 03:17:43;;;;;;;;;;;;;;;;;;5075658;28;19911;-63
2021/03/15 03:20:09;;;;;;;;;;;;;;;;;;5075187;28;20349;-63
2021/03/15 03:22:35;;;;;;;;;;;;;;;;;;5075286;28;19912;-63
2021/03/15 03:25:01;;;;;;;;;;;;;;;;;;5075056;28;20356;-63
2021/03/15 03:27:27;;;;;;;;;;;;;;;;;;5074630;28;19916;-63
2021/03/15 03:29:53;;;;;;;;;;;;;;;;;;5073595;28;19960;-63
2021/03/15 03:32:19;;;;;;;;;;;;;;;;;;5075187;28;20392;-63
2021/03/15 03:34:45;;;;;;;;;;;;;;;;;;5075004;28;19908;-63
2021/03/15 03:37:11;;;;;;;;;;;;;;;;;;5074901;28;20357;-64
2021/03/15 03:39:37;;;;;;;;;;;;;;;;;;5073382;28;19904;-63
2021/03/15 03:42:03;;;;;;;;;;;;;;;;;;5074694;28;19912;-63
2021/03/15 03:44:29;;;;;;;;;;;;;;;;;;5074954;28;19914;-63
2021/03/15 03:46:55;;;;;;;;;;;;;;;;;;5074511;28;20395;-64
2021/03/15 03:49:21;;;;;;;;;;;;;;;;;;5074503;28;20000;-63
2021/03/15 03:51:47;;;;;;;;;;;;;;;;;;5074470;28;19904;-63
2021/03/15 03:54:13;;;;;;;;;;;;;;;;;;5074730;28;19904;-63
2021/03/15 03:56:39;;;;;;;;;;;;;;;;;;5074351;28;19908;-63
2021/03/15 03:59:05;;;;;;;;;;;;;;;;;;5074026;28;19911;-63
2021/03/15 04:01:31;;;;;;;;;;;;;;;;;;5073730;28;19911;-63
2021/03/15 04:03:57;;;;;;;;;;;;;;;;;;5074212;28;20280;-63
2021/03/15 04:06:23;;;;;;;;;;;;;;;;;;5074034;28;19913;-63
2021/03/15 04:08:49;;;;;;;;;;;;;;;;;;5073043;28;19909;-62
2021/03/15 04:11:15;;;;;;;;;;;;;;;;;;5074388;28;19904;-61
2021/03/15 04:13:41;;;;;;;;;;;;;;;;;;5074324;28;19904;-63
2021/03/15 04:16:07;;;;;;;;;;;;;;;;;;5074291;28;19911;-63
2021/03/15 04:18:33;;;;;;;;;;;;;;;;;;5074050;28;19905;-63
2021/03/15 04:20:59;;;;;;;;;;;;;;;;;;5073964;28;20007;-63
2021/03/15 04:23:24;;;;;;;;;;;;;;;;;;5074224;28;19904;-63
2021/03/15 04:25:50;;;;;;;;;;;;;;;;;;5074144;28;19908;-63
2021/03/15 04:28:16;;;;;;;;;;;;;;;;;;5073756;28;19916;-63
2021/03/15 04:30:42;;;;;;;;;;;;;;;;;;5074073;28;19905;-62
2021/03/15 04:33:08;;;;;;;;;;;;;;;;;;5072664;28;20311;-63
2021/03/15 04:35:34;;;;;;;;;;;;;;;;;;5073752;28;19908;-63
2021/03/15 04:38:00;;;;;;;;;;;;;;;;;;5073844;28;19905;-63
2021/03/15 04:40:26;;;;;;;;;;;;;;;;;;5073871;28;19905;-63
2021/03/15 04:42:52;;;;;;;;;;;;;;;;;;5073815;28;19905;-63
2021/03/15 04:45:18;;;;;;;;;;;;;;;;;;5074009;28;19908;-62
2021/03/15 04:47:44;;;;;;;;;;;;;;;;;;5073761;28;20373;-63
2021/03/15 04:50:10;;;;;;;;;;;;;;;;;;5073861;28;19908;-62
2021/03/15 04:52:36;;;;;;;;;;;;;;;;;;5073634;28;19912;-63
2021/03/15 04:55:02;;;;;;;;;;;;;;;;;;5073671;28;19958;-63
2021/03/15 04:57:28;;;;;;;;;;;;;;;;;;5073904;28;20353;-63
2021/03/15 04:59:54;;;;;;;;;;;;;;;;;;5073891;28;19913;-62
2021/03/15 05:02:20;;;;;;;;;;;;;;;;;;5073803;28;20421;-63
2021/03/15 05:04:46;;;;;;;;;;;;;;;;;;5073903;28;20250;-63
2021/03/15 05:07:12;;;;;;;;;;;;;;;;;;5073412;28;19919;-63
2021/03/15 05:09:38;;;;;;;;;;;;;;;;;;5073563;28;20000;-63
2021/03/15 05:12:04;;;;;;;;;;;;;;;;;;5074702;28;19905;-63
2021/03/15 05:14:32;;;;;;;;;;;;;;;;;;5077524;28;19999;-63
2021/03/15 05:16:58;;;;;;;;;;;;;;;;;;5076137;28;20327;-63
2021/03/15 05:19:24;;;;;;;;;;;;;;;;;;5077720;28;19904;-63
2021/03/15 05:21:50;;;;;;;;;;;;;;;;;;5077355;28;20254;-63
2021/03/15 05:24:16;;;;;;;;;;;;;;;;;;5077433;28;19908;-62
2021/03/15 05:26:42;;;;;;;;;;;;;;;;;;5075766;28;19917;-62
2021/03/15 05:29:08;;;;;;;;;;;;;;;;;;5077307;28;20048;-63
2021/03/15 05:31:34;;;;;;;;;;;;;;;;;;5077211;28;19901;-63
2021/03/15 05:34:00;;;;;;;;;;;;;;;;;;5077155;28;19950;-63
2021/03/15 05:36:26;;;;;;;;;;;;;;;;;;5076976;28;19900;-62
2021/03/15 05:38:52;;;;;;;;;;;;;;;;;;5077288;28;20376;-63
2021/03/15 05:41:18;;;;;;;;;;;;;;;;;;5077067;28;19900;-62
2021/03/15 05:43:44;;;;;;;;;;;;;;;;;;5077132;28;19991;-63
2021/03/15 05:46:10;;;;;;;;;;;;;;;;;;5076837;28;20020;-63
2021/03/15 05:48:41;;;;;;;;;;;;;;;;;;5076850;28;20365;-63
2021/03/15 05:51:07;;;;;;;;;;;;;;;;;;5076821;28;20254;-63
2021/03/15 05:53:33;;;;;;;;;;;;;;;;;;5076731;28;19911;-63
2021/03/15 05:55:59;;;;;;;;;;;;;;;;;;5076699;28;19948;-63
2021/03/15 05:58:25;;;;;;;;;;;;;;;;;;5076553;28;19931;-63
2021/03/15 06:00:51;;;;;;;;;;;;;;;;;;5076617;28;19904;-62
2021/03/15 06:03:17;;;;;;;;;;;;;;;;;;5076565;28;19942;-63
2021/03/15 06:05:44;;;;;;;;;;;;;;;;;;5076482;28;19904;-63
2021/03/15 06:08:10;;;;;;;;;;;;;;;;;;5076353;28;19916;-63
2021/03/15 06:10:36;;;;;;;;;;;;;;;;;;5076547;28;20017;-62
2021/03/15 06:13:02;;;;;;;;;;;;;;;;;;5076270;28;19957;-63
2021/03/15 06:15:28;;;;;;;;;;;;;;;;;;5067501;28;19912;-63
2021/03/15 06:17:54;;;;;;;;;;;;;;;;;;5072446;28;19909;-63
2021/03/15 06:20:20;;;;;;;;;;;;;;;;;;5073609;28;19904;-62
2021/03/15 06:22:46;;;;;;;;;;;;;;;;;;5073181;28;20324;-62
2021/03/15 06:25:12;;;;;;;;;;;;;;;;;;5074131;28;19982;-63
2021/03/15 06:27:38;;;;;;;;;;;;;;;;;;5074133;28;20126;-63
2021/03/15 06:30:04;;;;;;;;;;;;;;;;;;5076073;28;20016;-63
2021/03/15 06:32:30;;;;;;;;;;;;;;;;;;5076213;28;20276;-63
2021/03/15 06:34:56;;;;;;;;;;;;;;;;;;5076006;28;19904;-63
2021/03/15 06:37:22;;;;;;;;;;;;;;;;;;5075900;28;20353;-64
2021/03/15 06:39:48;;;;;;;;;;;;;;;;;;5075167;28;19908;-64
2021/03/15 06:42:14;;;;;;;;;;;;;;;;;;5076045;28;19904;-64
2021/03/15 06:44:40;;;;;;;;;;;;;;;;;;5075418;28;19963;-64
2021/03/15 06:47:06;;;;;;;;;;;;;;;;;;5075597;28;20394;-64
2021/03/15 06:49:31;;;;;;;;;;;;;;;;;;5075552;28;19947;-64
2021/03/15 06:51:57;;;;;;;;;;;;;;;;;;5075534;28;19904;-65
2021/03/15 06:54:23;;;;;;;;;;;;;;;;;;5075766;28;20325;-64
2021/03/15 06:56:49;;;;;;;;;;;;;;;;;;5074178;28;19904;-63
2021/03/15 06:59:15;;;;;;;;;;;;;;;;;;5075139;28;19915;-63
2021/03/15 07:01:41;;;;;;;;;;;;;;;;;;5074928;28;19985;-62
2021/03/15 07:04:08;;;;;;;;;;;;;;;;;;5075248;28;19905;-63
2021/03/15 07:06:34;;;;;;;;;;;;;;;;;;5074780;28;20085;-62
2021/03/15 07:09:00;;;;;;;;;;;;;;;;;;5075107;28;20365;-65
2021/03/15 07:11:28;;;;;;;;;;;;;;;;;;5075094;28;19905;-63
2021/03/15 07:13:54;;;;;;;;;;;;;;;;;;5075267;28;19995;-63
2021/03/15 07:16:20;;;;;;;;;;;;;;;;;;5075505;28;20238;-65
2021/03/15 07:18:46;;;;;;;;;;;;;;;;;;5075023;28;20372;-64
2021/03/15 07:21:12;;;;;;;;;;;;;;;;;;5073794;28;20357;-65
2021/03/15 07:23:38;;;;;;;;;;;;;;;;;;5074487;28;19939;-65
2021/03/15 07:26:04;;;;;;;;;;;;;;;;;;5074598;28;19916;-65
2021/03/15 07:28:31;;;;;;;;;;;;;;;;;;5074891;28;19915;-65
2021/03/15 07:30:57;;;;;;;;;;;;;;;;;;5073670;28;19971;-65
2021/03/15 07:33:24;;;;;;;;;;;;;;;;;;5074879;28;19904;-65
2021/03/15 07:35:50;;;;;;;;;;;;;;;;;;5074965;28;20238;-65
2021/03/15 07:38:16;;;;;;;;;;;;;;;;;;5074830;28;19909;-65
2021/03/15 07:40:42;;;;;;;;;;;;;;;;;;5074702;28;19927;-65
2021/03/15 07:43:08;;;;;;;;;;;;;;;;;;5074709;28;20292;-65
2021/03/15 07:45:34;;;;;;;;;;;;;;;;;;5074568;28;19904;-65
2021/03/15 07:48:00;;;;;;;;;;;;;;;;;;5074851;28;20353;-65
2021/03/15 07:50:26;;;;;;;;;;;;;;;;;;5072014;28;19909;-65
2021/03/15 07:52:52;;;;;;;;;;;;;;;;;;5072385;28;19999;-63
2021/03/15 07:55:18;;;;;;;;;;;;;;;;;;5072979;28;19908;-64
2021/03/15 07:57:44;;;;;;;;;;;;;;;;;;5071707;28;20350;-65
2021/03/15 08:00:10;;;;;;;;;;;;;;;;;;5072900;28;19908;-64
2021/03/15 08:02:36;;;;;;;;;;;;;;;;;;5072207;28;19912;-65
2021/03/15 08:05:02;;;;;;;;;;;;;;;;;;5074008;28;19912;-66
2021/03/15 08:07:28;;;;;;;;;;;;;;;;;;5074082;28;20313;-66
2021/03/15 08:09:58;;;;;;;;;;;;;;;;;;5074110;28;19915;-65
2021/03/15 08:12:24;;;;;;;;;;;;;;;;;;5072763;28;19987;-66
2021/03/15 08:14:50;;;;;;;;;;;;;;;;;;5074221;28;19957;-66
2021/03/15 08:17:17;;;;;;;;;;;;;;;;;;5074041;28;19904;-66
2021/03/15 08:19:43;;;;;;;;;;;;;;;;;;5074238;28;19944;-66
2021/03/15 08:22:09;;;;;;;;;;;;;;;;;;5074245;28;20303;-65
2021/03/15 08:24:35;;;;;;;;;;;;;;;;;;5073847;28;19911;-66
2021/03/15 08:27:01;;;;;;;;;;;;;;;;;;5073834;28;19920;-65
2021/03/15 08:29:27;;;;;;;;;;;;;;;;;;5073861;28;19911;-65
2021/03/15 08:31:53;;;;;;;;;;;;;;;;;;5074182;28;19905;-65
2021/03/15 08:34:19;;;;;;;;;;;;;;;;;;5073879;28;19961;-65
2021/03/15 08:36:45;;;;;;;;;;;;;;;;;;5073761;28;19904;-64
2021/03/15 08:39:11;;;;;;;;;;;;;;;;;;5073769;28;19900;-65
2021/03/15 08:41:37;;;;;;;;;;;;;;;;;;5073697;28;20350;-63
2021/03/15 08:44:03;;;;;;;;;;;;;;;;;;5073737;28;19901;-65
2021/03/15 08:46:29;;;;;;;;;;;;;;;;;;5072931;28;19916;-65
2021/03/15 08:48:55;;;;;;;;;;;;;;;;;;5073636;28;19912;-66
2021/03/15 08:51:21;;;;;;;;;;;;;;;;;;5072166;28;20409;-66
2021/03/15 08:53:51;;;;;;;;;;;;;;;;;;5073752;28;19905;-66
2021/03/15 08:56:18;;;;;;;;;;;;;;;;;;5073841;28;19904;-65
2021/03/15 08:58:44;;;;;;;;;;;;;;;;;;5073808;28;19911;-65
2021/03/15 09:01:10;;;;;;;;;;;;;;;;;;5073271;28;19904;-66
2021/03/15 09:03:35;;;;;;;;;;;;;;;;;;5073511;28;19950;-66
2021/03/15 09:06:01;;;;;;;;;;;;;;;;;;5073287;28;19908;-67
2021/03/15 09:08:27;;;;;;;;;;;;;;;;;;5073631;28;19905;-66
2021/03/15 09:10:53;;;;;;;;;;;;;;;;;;5073746;28;20410;-66
2021/03/15 09:13:20;;;;;;;;;;;;;;;;;;5073409;28;20011;-66
2021/03/15 09:15:46;;;;;;;;;;;;;;;;;;5073284;28;19959;-66
2021/03/15 09:18:12;;;;;;;;;;;;;;;;;;5073628;28;19904;-66
2021/03/15 09:20:38;;;;;;;;;;;;;;;;;;5073333;28;19912;-66
2021/03/15 09:23:04;;;;;;;;;;;;;;;;;;5073581;28;20357;-66
2021/03/15 09:25:31;;;;;;;;;;;;;;;;;;5073359;28;19904;-65
2021/03/15 09:27:57;;;;;;;;;;;;;;;;;;5072794;28;19916;-65
2021/03/15 09:30:23;;;;;;;;;;;;;;;;;;5073142;28;19907;-66
2021/03/15 09:32:49;;;;;;;;;;;;;;;;;;5073102;28;19961;-64
2021/03/15 09:35:15;;;;;;;;;;;;;;;;;;5073127;28;19908;-65
2021/03/15 09:37:41;;;;;;;;;;;;;;;;;;5071688;28;19904;-65
2021/03/15 09:40:07;;;;;;;;;;;;;;;;;;5073055;28;19951;-65
2021/03/15 09:42:33;;;;;;;;;;;;;;;;;;5073155;28;19905;-66
2021/03/15 09:44:59;;;;;;;;;;;;;;;;;;5073548;28;19905;-64
2021/03/15 09:47:25;;;;;;;;;;;;;;;;;;5072852;28;19986;-66
2021/03/15 09:49:51;;;;;;;;;;;;;;;;;;5073136;28;19905;-66
2021/03/15 09:52:17;;;;;;;;;;;;;;;;;;5073077;28;20365;-66
2021/03/15 09:54:43;;;;;;;;;;;;;;;;;;5073082;28;19992;-66
2021/03/15 09:57:09;;;;;;;;;;;;;;;;;;5071701;28;19913;-66
2021/03/15 09:59:34;;;;;;;;;;;;;;;;;;5074743;28;19908;-66
2021/03/15 10:02:01;;;;;;;;;;;;;;;;;;5075185;28;19904;-66
2021/03/15 10:04:26;;;;;;;;;;;;;;;;;;5075247;28;19994;-66
2021/03/15 10:06:52;;;;;;;;;;;;;;;;;;5076307;28;19948;-66
2021/03/15 10:09:18;;;;;;;;;;;;;;;;;;5076464;28;19915;-65
2021/03/15 10:11:44;;;;;;;;;;;;;;;;;;5076265;28;19967;-66
2021/03/15 10:14:10;;;;;;;;;;;;;;;;;;5075023;28;19911;-66
2021/03/15 10:16:36;;;;;;;;;;;;;;;;;;5076162;28;19911;-66
2021/03/15 10:19:02;;;;;;;;;;;;;;;;;;5074960;28;19908;-64
2021/03/15 10:21:28;;;;;;;;;;;;;;;;;;5076151;28;20003;-65
2021/03/15 10:23:54;;;;;;;;;;;;;;;;;;5076519;28;19915;-65
2021/03/15 10:26:20;;;;;;;;;;;;;;;;;;5074504;28;20360;-66
2021/03/15 10:28:46;;;;;;;;;;;;;;;;;;5076192;28;19966;-66
2021/03/15 10:31:12;;;;;;;;;;;;;;;;;;5075648;28;19916;-65
2021/03/15 10:33:38;;;;;;;;;;;;;;;;;;5075072;28;20036;-64
2021/03/15 10:36:04;;;;;;;;;;;;;;;;;;5074289;28;20008;-66
2021/03/15 10:38:30;;;;;;;;;;;;;;;;;;5073889;28;20281;-65
2021/03/15 10:40:56;;;;;;;;;;;;;;;;;;5072840;28;19987;-65
2021/03/15 10:43:25;;;;;;;;;;;;;;;;;;5074462;28;19908;-64
2021/03/15 10:45:51;;;;;;;;;;;;;;;;;;5074586;28;20383;-65
2021/03/15 10:48:17;;;;;;;;;;;;;;;;;;5074143;28;19908;-65
2021/03/15 10:50:45;;;;;;;;;;;;;;;;;;5075250;28;20296;-64
2021/03/15 10:53:11;;;;;;;;;;;;;;;;;;5075447;28;19914;-63
2021/03/15 10:55:37;;;;;;;;;;;;;;;;;;5075191;28;19908;-64
2021/03/15 10:58:03;;;;;;;;;;;;;;;;;;5075382;28;20276;-65
2021/03/15 11:00:29;;;;;;;;;;;;;;;;;;5073776;28;19918;-64
2021/03/15 11:02:55;;;;;;;;;;;;;;;;;;5074857;28;19909;-65
2021/03/15 11:05:21;;;;;;;;;;;;;;;;;;5074706;28;20003;-65
2021/03/15 11:07:47;;;;;;;;;;;;;;;;;;5075056;28;19912;-64
2021/03/15 11:10:13;;;;;;;;;;;;;;;;;;5074300;28;20372;-63
2021/03/15 11:12:39;;;;;;;;;;;;;;;;;;5075445;28;19905;-63
2021/03/15 11:15:05;;;;;;;;;;;;;;;;;;5074781;28;19913;-63
2021/03/15 11:17:31;;;;;;;;;;;;;;;;;;5074665;28;19908;-62
2021/03/15 11:19:57;;;;;;;;;;;;;;;;;;5072981;28;20281;-63
2021/03/15 11:22:23;;;;;;;;;;;;;;;;;;5075122;28;19911;-63
2021/03/15 11:24:48;;;;;;;;;;;;;;;;;;5074884;28;19915;-63
2021/03/15 11:27:14;;;;;;;;;;;;;;;;;;5074661;28;19916;-63
2021/03/15 11:29:41;;;;;;;;;;;;;;;;;;5074951;28;19962;-63
2021/03/15 11:32:07;;;;;;;;;;;;;;;;;;5074901;28;19900;-63
2021/03/15 11:34:33;;;;;;;;;;;;;;;;;;5074603;28;19904;-63
2021/03/15 11:36:59;;;;;;;;;;;;;;;;;;5074289;28;19954;-64
2021/03/15 11:39:25;;;;;;;;;;;;;;;;;;5072816;28;20391;-63
2021/03/15 11:41:51;;;;;;;;;;;;;;;;;;5074316;28;19980;-64
2021/03/15 11:44:17;;;;;;;;;;;;;;;;;;5073828;28;19956;-65
2021/03/15 11:46:43;;;;;;;;;;;;;;;;;;5074743;28;19953;-65
2021/03/15 11:49:09;;;;;;;;;;;;;;;;;;5073656;28;19915;-64
2021/03/15 11:51:35;;;;;;;;;;;;;;;;;;5073838;28;19915;-64
2021/03/15 11:54:01;;;;;;;;;;;;;;;;;;5074116;28;20348;-63
2021/03/15 11:56:27;;;;;;;;;;;;;;;;;;5073931;28;19905;-66
2021/03/15 11:58:53;;;;;;;;;;;;;;;;;;5074276;28;20269;-65
2021/03/15 12:01:19;;;;;;;;;;;;;;;;;;5073666;28;19916;-65
2021/03/15 12:03:45;;;;;;;;;;;;;;;;;;5074062;28;19908;-65
2021/03/15 12:06:11;;;;;;;;;;;;;;;;;;5073335;28;19912;-65
2021/03/15 12:08:37;;;;;;;;;;;;;;;;;;5074250;28;19905;-65
2021/03/15 12:11:03;;;;;;;;;;;;;;;;;;5073351;28;19923;-65
2021/03/15 12:13:29;;;;;;;;;;;;;;;;;;5073103;28;19918;-63
2021/03/15 12:15:55;;;;;;;;;;;;;;;;;;5072328;28;20422;-62
2021/03/15 12:18:21;;;;;;;;;;;;;;;;;;5073126;28;19908;-63
2021/03/15 12:20:47;;;;;;;;;;;;;;;;;;5073013;28;19905;-63
2021/03/15 12:23:13;;;;;;;;;;;;;;;;;;5073667;28;19911;-63
2021/03/15 12:25:39;;;;;;;;;;;;;;;;;;5073586;28;19915;-63
2021/03/15 12:28:05;;;;;;;;;;;;;;;;;;5073296;28;19931;-63
2021/03/15 12:30:31;;;;;;;;;;;;;;;;;;5073491;28;19904;-64
2021/03/15 12:32:57;;;;;;;;;;;;;;;;;;5073422;28;20280;-64
2021/03/15 12:35:23;;;;;;;;;;;;;;;;;;5073383;28;19904;-62
2021/03/15 12:37:49;;;;;;;;;;;;;;;;;;5073535;28;19908;-64
2021/03/15 12:40:15;;;;;;;;;;;;;;;;;;5074011;28;20346;-64
2021/03/15 12:42:41;;;;;;;;;;;;;;;;;;5073860;28;19910;-65
2021/03/15 12:45:07;;;;;;;;;;;;;;;;;;5073748;28;20285;-64
2021/03/15 12:47:33;;;;;;;;;;;;;;;;;;5073634;28;19913;-64
2021/03/15 12:49:59;;;;;;;;;;;;;;;;;;5073616;28;19909;-65
2021/03/15 12:52:27;;;;;;;;;;;;;;;;;;5072521;28;19904;-64
2021/03/15 12:54:53;;;;;;;;;;;;;;;;;;5072509;28;19909;-64
2021/03/15 12:57:19;;;;;;;;;;;;;;;;;;5073644;28;19915;-64
2021/03/15 12:59:45;;;;;;;;;;;;;;;;;;5074142;28;19949;-65
2021/03/15 13:02:11;;;;;;;;;;;;;;;;;;5073861;28;19904;-65
2021/03/15 13:04:37;;;;;;;;;;;;;;;;;;5073723;28;19996;-64
2021/03/15 13:07:03;;;;;;;;;;;;;;;;;;5072999;28;19917;-64
2021/03/15 13:09:29;;;;;;;;;;;;;;;;;;5073539;28;19962;-64
2021/03/15 13:11:55;;;;;;;;;;;;;;;;;;5073712;28;19957;-65
2021/03/15 13:14:21;;;;;;;;;;;;;;;;;;5073578;28;19904;-64
2021/03/15 13:16:47;;;;;;;;;;;;;;;;;;5073564;28;20246;-64
2021/03/15 13:19:13;;;;;;;;;;;;;;;;;;5073397;28;19904;-65
2021/03/15 13:21:40;;;;;;;;;;;;;;;;;;5073687;28;19958;-64
2021/03/15 13:24:06;;;;;;;;;;;;;;;;;;5073276;28;19995;-64
2021/03/15 13:26:32;;;;;;;;;;;;;;;;;;5071918;28;19924;-65
2021/03/15 13:28:58;;;;;;;;;;;;;;;;;;5073304;28;20345;-65
2021/03/15 13:31:24;;;;;;;;;;;;;;;;;;5072955;28;19915;-64
2021/03/15 13:33:50;;;;;;;;;;;;;;;;;;5076575;28;19908;-65
2021/03/15 13:36:16;;;;;;;;;;;;;;;;;;5077444;28;19911;-64
2021/03/15 13:38:42;;;;;;;;;;;;;;;;;;5077173;28;20343;-65
2021/03/15 13:41:08;;;;;;;;;;;;;;;;;;5077257;28;19911;-65
2021/03/15 13:43:34;;;;;;;;;;;;;;;;;;5077092;28;19927;-65
2021/03/15 13:46:01;;;;;;;;;;;;;;;;;;5076612;28;19959;-64
2021/03/15 13:48:27;;;;;;;;;;;;;;;;;;5076333;28;20022;-64
2021/03/15 13:50:53;;;;;;;;;;;;;;;;;;5076450;28;20250;-65
2021/03/15 13:53:18;;;;;;;;;;;;;;;;;;5076656;28;19908;-62
2021/03/15 13:55:44;;;;;;;;;;;;;;;;;;5076673;28;20339;-64
2021/03/15 13:58:10;;;;;;;;;;;;;;;;;;5076828;28;19908;-67
2021/03/15 14:00:38;;;;;;;;;;;;;;;;;;5076734;28;20261;-65
2021/03/15 14:03:04;;;;;;;;;;;;;;;;;;5075526;28;19931;-65
2021/03/15 14:05:30;;;;;;;;;;;;;;;;;;5076624;28;20358;-64
2021/03/15 14:07:56;;;;;;;;;;;;;;;;;;5076498;28;19913;-64
2021/03/15 14:10:22;;;;;;;;;;;;;;;;;;5076413;28;19911;-64
2021/03/15 14:12:48;;;;;;;;;;;;;;;;;;5076699;28;20016;-64
2021/03/15 14:15:14;;;;;;;;;;;;;;;;;;5076698;28;19927;-64
2021/03/15 14:17:40;;;;;;;;;;;;;;;;;;5076475;28;19904;-64
2021/03/15 14:20:06;;;;;;;;;;;;;;;;;;5076494;28;19904;-64
2021/03/15 14:22:32;;;;;;;;;;;;;;;;;;5076271;28;20353;-64
2021/03/15 14:24:58;;;;;;;;;;;;;;;;;;5076333;28;19947;-65
2021/03/15 14:27:24;;;;;;;;;;;;;;;;;;5075868;28;19924;-64
2021/03/15 14:29:50;;;;;;;;;;;;;;;;;;5076681;28;19908;-63
2021/03/15 14:32:16;;;;;;;;;;;;;;;;;;5076253;28;19999;-64
2021/03/15 14:37:19;;;;;;;;;;;;;;;;;;5083669;28;19920;-66
2021/03/15 14:39:45;;;;;;;;;;;;;;;;;;5096647;28;19904;-65
2021/03/15 14:42:11;;;;;;;;;;;;;;;;;;5095908;28;19904;-66
2021/03/15 14:44:37;;;;;;;;;;;;;;;;;;5095679;28;19904;-65
2021/03/15 14:47:03;;;;;;;;;;;;;;;;;;5095930;28;19919;-65
2021/03/15 14:49:29;;;;;;;;;;;;;;;;;;5080233;28;20250;-65
2021/03/15 14:51:55;;;;;;;;;;;;;;;;;;5075689;28;19912;-65
2021/03/15 14:54:21;;;;;;;;;;;;;;;;;;5075700;28;20375;-65
2021/03/15 14:56:47;;;;;;;;;;;;;;;;;;5075565;28;19904;-65
2021/03/15 14:59:13;;;;;;;;;;;;;;;;;;5075821;28;20261;-65
2021/03/15 15:01:39;;;;;;;;;;;;;;;;;;5074551;28;19917;-65
2021/03/15 15:04:06;;;;;;;;;;;;;;;;;;5075626;28;19905;-63
2021/03/15 15:06:32;;;;;;;;;;;;;;;;;;5057381;28;20395;-63
2021/03/15 15:08:58;;;;;;;;;;;;;;;;;;5075602;28;19904;-63
2021/03/15 15:11:24;;;;;;;;;;;;;;;;;;5074931;28;19908;-66
2021/03/15 15:13:49;;;;;;;;;;;;;;;;;;5075214;28;20387;-65
2021/03/15 15:16:15;;;;;;;;;;;;;;;;;;5075256;28;19904;-65
2021/03/15 15:18:41;;;;;;;;;;;;;;;;;;5075342;28;20281;-66
2021/03/15 15:21:07;;;;;;;;;;;;;;;;;;5075172;28;19904;-65
2021/03/15 15:23:33;;;;;;;;;;;;;;;;;;5075084;28;19909;-67
2021/03/15 15:25:59;;;;;;;;;;;;;;;;;;5074908;28;19910;-68
2021/03/15 15:28:25;;;;;;;;;;;;;;;;;;5075190;28;19909;-66
2021/03/15 15:30:51;;;;;;;;;;;;;;;;;;5075210;28;19904;-66
2021/03/15 15:33:17;;;;;;;;;;;;;;;;;;5074986;28;19962;-66
2021/03/15 15:35:43;;;;;;;;;;;;;;;;;;5074840;28;19912;-66
2021/03/15 15:38:09;;;;;;;;;;;;;;;;;;5074400;28;19919;-66
2021/03/15 15:40:35;;;;;;;;;;;;;;;;;;5073178;28;19951;-65
2021/03/15 15:43:01;;;;;;;;;;;;;;;;;;5071077;28;19908;-66
2021/03/15 15:45:27;;;;;;;;;;;;;;;;;;5073908;28;19908;-66
2021/03/15 15:47:53;;;;;;;;;;;;;;;;;;5074288;28;19920;-66
2021/03/15 15:50:19;;;;;;;;;;;;;;;;;;5074530;28;19966;-66
2021/03/15 15:52:45;;;;;;;;;;;;;;;;;;5074931;28;19965;-66
2021/03/15 15:55:11;;;;;;;;;;;;;;;;;;5073847;28;19904;-65
2021/03/15 15:57:37;;;;;;;;;;;;;;;;;;5073815;28;19904;-66
2021/03/15 16:00:03;;;;;;;;;;;;;;;;;;5072569;28;19927;-66
2021/03/15 16:02:29;;;;;;;;;;;;;;;;;;5072776;28;20361;-66
2021/03/15 16:04:55;;;;;;;;;;;;;;;;;;5073835;28;20015;-65
2021/03/15 16:07:21;;;;;;;;;;;;;;;;;;5073140;28;19924;-65
2021/03/15 16:09:47;;;;;;;;;;;;;;;;;;5074084;28;20004;-64
2021/03/15 16:12:13;;;;;;;;;;;;;;;;;;5074302;28;20384;-66
2021/03/15 16:14:39;;;;;;;;;;;;;;;;;;5074100;28;19940;-65
2021/03/15 16:17:05;;;;;;;;;;;;;;;;;;5073492;28;19904;-66
2021/03/15 16:19:31;;;;;;;;;;;;;;;;;;5073382;28;19919;-66
2021/03/15 16:21:58;;;;;;;;;;;;;;;;;;5055572;28;19948;-66
2021/03/15 16:24:24;;;;;;;;;;;;;;;;;;5073869;28;20262;-67
2021/03/15 16:26:50;;;;;;;;;;;;;;;;;;5073796;28;19916;-65
2021/03/15 16:29:16;;;;;;;;;;;;;;;;;;5073712;28;19911;-67
2021/03/15 16:31:42;;;;;;;;;;;;;;;;;;5074060;28;19905;-66
2021/03/15 16:34:08;;;;;;;;;;;;;;;;;;5073646;28;19927;-66
2021/03/15 16:36:34;;;;;;;;;;;;;;;;;;5054585;28;20424;-66
2021/03/15 16:39:00;;;;;;;;;;;;;;;;;;5072485;28;19915;-66